Time;durP1;ratioP1;P1;durP2;ratioP2;P2;SDS_P1;SDS_P2;PMS_P1;PMS_P2;Temp;Humidity;BMP_temperature;BMP_pressure;BME280_temperature;BME280_humidity;BME280_pressure;Samples;Min_cycle;Max_cycle;Signal;HPM_P1;HPM_P2
2022/04/13 00:00:37;;;;;;;6.68;4.50;;;;;;;16.69;48.17;99606.03;5048652;28;20045;-83
2022/04/13 00:03:03;;;;;;;10.82;5.00;;;;;;;16.67;47.97;99608.06;5028080;28;20495;-83
2022/04/13 00:05:32;;;;;;;9.27;4.93;;;;;;;16.65;48.08;99608.22;5027534;28;20044;-83
2022/04/13 00:08:00;;;;;;;7.13;4.90;;;;;;;16.67;48.17;99614.25;5060404;28;20577;-82
2022/04/13 00:10:27;;;;;;;11.15;4.82;;;;;;;16.64;48.28;99608.41;5031397;28;20069;-83
2022/04/13 00:12:54;;;;;;;10.75;4.97;;;;;;;16.65;48.75;99605.53;5026397;28;20045;-83
2022/04/13 00:15:21;;;;;;;8.48;4.80;;;;;;;16.66;48.63;99609.06;5030255;28;20049;-83
2022/04/13 00:17:48;;;;;;;9.63;5.57;;;;;;;16.66;48.78;99615.28;5013384;28;20095;-83
2022/04/13 00:20:15;;;;;;;7.28;4.70;;;;;;;16.66;49.20;99609.06;5013828;28;20057;-83
2022/04/13 00:22:43;;;;;;;8.40;4.40;;;;;;;16.65;49.29;99607.41;5003176;28;20052;-83
2022/04/13 00:25:09;;;;;;;7.95;4.97;;;;;;;16.65;49.30;99613.59;5025656;28;20882;-82
2022/04/13 00:27:37;;;;;;;6.13;4.35;;;;;;;16.65;49.37;99616.28;5027173;28;20053;-83
2022/04/13 00:34:47;;;;;;;11.27;4.20;;;;;;;16.57;49.57;99613.66;5023433;28;20122;-83
2022/04/13 00:37:14;;;;;;;7.40;4.55;;;;;;;16.59;49.86;99618.81;5032394;28;20049;-82
2022/04/13 00:39:42;;;;;;;11.65;4.25;;;;;;;16.58;49.60;99620.69;5040974;28;20091;-83
2022/04/13 00:42:09;;;;;;;7.53;4.53;;;;;;;16.60;49.78;99617.81;5026910;28;20055;-83
2022/04/13 00:44:38;;;;;;;6.78;3.83;;;;;;;16.58;49.82;99615.31;5023181;28;20439;-83
2022/04/13 00:47:08;;;;;;;9.57;4.35;;;;;;;16.55;49.83;99618.34;5029368;28;20086;-81
2022/04/13 00:49:35;;;;;;;8.00;4.88;;;;;;;16.58;49.72;99614.47;5062657;28;20069;-81
2022/04/13 00:52:04;;;;;;;7.70;4.38;;;;;;;16.57;49.74;99618.19;5001064;28;20051;-81
2022/04/13 00:54:32;;;;;;;6.60;3.97;;;;;;;16.58;49.93;99617.16;5049014;28;20053;-81
2022/04/13 00:57:04;;;;;;;9.50;4.32;;;;;;;16.55;50.10;99617.53;5049673;28;20049;-81
2022/04/13 00:59:31;;;;;;;9.43;4.53;;;;;;;16.55;49.73;99614.84;5027319;28;20052;-81
2022/04/13 01:01:58;;;;;;;7.97;3.97;;;;;;;16.53;49.67;99623.06;5021819;28;20056;-81
2022/04/13 01:04:31;;;;;;;10.80;4.32;;;;;;;16.50;49.64;99618.88;5020907;28;20053;-81
2022/04/13 01:07:00;;;;;;;8.32;4.03;;;;;;;16.50;49.49;99620.75;5029531;28;20049;-81
2022/04/13 01:09:30;;;;;;;9.10;4.70;;;;;;;16.47;49.66;99618.44;5039318;28;20041;-81
2022/04/13 01:11:56;;;;;;;9.18;4.50;;;;;;;16.47;49.58;99623.78;5028055;28;20051;-81
2022/04/13 01:14:24;;;;;;;10.00;4.82;;;;;;;16.45;49.74;99620.44;5013516;28;20053;-81
2022/04/13 01:16:52;;;;;;;11.80;5.07;;;;;;;16.44;49.64;99621.47;5015858;28;20045;-81
2022/04/13 01:19:19;;;;;;;12.88;5.07;;;;;;;16.42;49.46;99624.31;5010175;28;20041;-81
2022/04/13 01:21:52;;;;;;;10.68;5.18;;;;;;;16.43;49.67;99630.50;5024525;28;20061;-81
2022/04/13 01:24:21;;;;;;;9.30;4.78;;;;;;;16.40;49.77;99629.03;4976072;28;20052;-81
2022/04/13 01:26:50;;;;;;;12.90;4.95;;;;;;;16.39;49.59;99631.91;4999420;28;20041;-81
2022/04/13 01:29:22;;;;;;;11.43;4.72;;;;;;;16.32;49.99;99631.75;5031542;28;20052;-81
2022/04/13 01:31:49;;;;;;;7.60;4.75;;;;;;;16.36;49.79;99633.09;5012376;28;20053;-81
2022/04/13 01:34:16;;;;;;;7.88;4.50;;;;;;;16.34;49.71;99635.09;5022591;28;20042;-81
2022/04/13 01:36:44;;;;;;;6.38;4.53;;;;;;;16.34;49.95;99631.59;5017960;28;20042;-81
2022/04/13 01:39:10;;;;;;;8.52;4.40;;;;;;;16.31;49.89;99634.59;5017965;28;20063;-81
2022/04/13 01:41:37;;;;;;;12.15;5.32;;;;;;;16.30;49.82;99630.28;5041987;28;20049;-81
2022/04/13 01:44:04;;;;;;;8.30;4.35;;;;;;;16.27;50.19;99634.13;5031199;28;20037;-81
2022/04/13 01:46:30;;;;;;;7.07;4.53;;;;;;;16.25;50.20;99631.63;5051148;28;20043;-81
2022/04/13 01:48:57;;;;;;;9.43;3.90;;;;;;;16.22;50.04;99634.66;5014015;28;20095;-81
2022/04/13 01:51:23;;;;;;;13.00;5.15;;;;;;;16.21;50.07;99642.91;5031737;28;20463;-81
2022/04/13 01:53:50;;;;;;;7.40;4.50;;;;;;;16.18;49.89;99641.41;5003015;28;20047;-81
2022/04/13 01:56:18;;;;;;;9.27;4.85;;;;;;;16.17;49.98;99642.41;5030332;28;20386;-81
2022/04/13 01:58:44;;;;;;;12.55;5.32;;;;;;;16.17;50.12;99652.28;5025541;28;20096;-81
2022/04/13 02:01:11;;;;;;;12.77;5.45;;;;;;;16.15;50.09;99649.78;5001475;28;20948;-80
2022/04/13 02:03:38;;;;;;;7.65;4.45;;;;;;;16.14;50.48;99655.31;5010042;28;20099;-81
2022/04/13 02:06:05;;;;;;;11.73;4.97;;;;;;;16.13;50.31;99656.31;5004762;28;20088;-81
2022/04/13 02:08:33;;;;;;;8.13;4.55;;;;;;;16.13;50.45;99653.63;5024662;28;20045;-81
2022/04/13 02:10:59;;;;;;;6.07;4.22;;;;;;;16.09;50.36;99653.16;5059894;28;20037;-81
2022/04/13 02:13:27;;;;;;;8.88;4.72;;;;;;;16.08;50.33;99664.03;5028776;28;20402;-81
2022/04/13 02:15:54;;;;;;;8.18;4.20;;;;;;;16.05;50.58;99666.09;5015853;28;20067;-81
2022/04/13 02:18:21;;;;;;;10.43;4.10;;;;;;;16.04;50.39;99664.41;5004500;28;20053;-81
2022/04/13 02:20:48;;;;;;;9.32;4.45;;;;;;;16.02;50.45;99665.59;5061058;28;20043;-81
2022/04/13 02:23:14;;;;;;;7.00;4.40;;;;;;;16.00;50.39;99672.97;5012010;28;20045;-81
2022/04/13 02:25:41;;;;;;;7.18;4.43;;;;;;;16.00;50.47;99675.63;5026330;28;20049;-81
2022/04/13 02:28:08;;;;;;;9.73;4.38;;;;;;;15.96;50.53;99667.13;5026692;28;20045;-81
2022/04/13 02:30:35;;;;;;;6.85;4.45;;;;;;;15.94;50.57;99669.13;5042451;28;20037;-81
2022/04/13 02:33:02;;;;;;;6.68;4.50;;;;;;;15.93;50.53;99666.66;5029292;28;20430;-81
2022/04/13 02:35:29;;;;;;;6.97;4.22;;;;;;;15.90;50.67;99665.16;5059273;28;20041;-81
2022/04/13 02:37:56;;;;;;;7.68;4.15;;;;;;;15.89;50.81;99660.78;5032697;28;20044;-81
2022/04/13 02:40:23;;;;;;;7.22;4.47;;;;;;;15.89;50.82;99662.66;5046015;28;20054;-81
2022/04/13 02:42:50;;;;;;;6.25;4.35;;;;;;;15.85;50.75;99662.16;5025356;28;20049;-81
2022/04/13 02:45:16;;;;;;;10.48;4.38;;;;;;;15.82;50.86;99663.34;5010964;28;20095;-81
2022/04/13 02:47:43;;;;;;;8.95;4.57;;;;;;;15.81;50.81;99664.34;5054995;28;20048;-81
2022/04/13 02:50:10;;;;;;;6.60;3.75;;;;;;;15.79;50.86;99669.03;5054194;28;20501;-81
2022/04/13 02:52:37;;;;;;;9.55;4.38;;;;;;;15.76;51.06;99666.72;5023892;28;20055;-81
2022/04/13 02:55:04;;;;;;;11.82;4.80;;;;;;;15.75;50.86;99665.06;5020676;28;20060;-81
2022/04/13 02:57:31;;;;;;;11.38;5.00;;;;;;;15.72;51.04;99665.41;5006758;28;20045;-81
2022/04/13 02:59:57;;;;;;;10.68;5.35;;;;;;;15.72;51.25;99670.75;5024190;28;20478;-81
2022/04/13 03:02:29;;;;;;;8.70;5.00;;;;;;;15.72;50.96;99669.91;5029529;28;20099;-81
2022/04/13 03:04:56;;;;;;;10.00;4.82;;;;;;;15.70;51.35;99670.09;5025929;28;20045;-81
2022/04/13 03:07:25;;;;;;;7.05;4.22;;;;;;;15.68;51.30;99666.72;5029168;28;20129;-81
2022/04/13 03:09:52;;;;;;;7.15;4.53;;;;;;;15.66;51.15;99671.41;5032577;28;20045;-81
2022/04/13 03:12:19;;;;;;;8.95;5.35;;;;;;;15.63;50.92;99675.25;5029750;28;20044;-81
2022/04/13 03:14:45;;;;;;;10.35;4.93;;;;;;;15.62;50.99;99675.41;5030300;28;20041;-81
2022/04/13 03:17:14;;;;;;;7.78;4.85;;;;;;;15.59;51.45;99678.44;5026827;28;20405;-81
2022/04/13 03:19:42;;;;;;;11.05;5.03;;;;;;;15.60;51.48;99683.63;5005232;28;20055;-81
2022/04/13 03:22:08;;;;;;;8.63;4.72;;;;;;;15.57;51.39;99681.31;5028260;28;20048;-81
2022/04/13 03:24:41;;;;;;;8.05;4.80;;;;;;;15.53;51.54;99679.97;5024531;28;20049;-81
2022/04/13 03:27:09;;;;;;;9.43;4.20;;;;;;;15.53;51.71;99684.50;5025453;28;20452;-81
2022/04/13 03:34:11;;;;;;;6.50;4.50;;;;;;;15.39;51.72;99678.84;5018086;28;20045;-80
2022/04/13 03:36:40;;;;;;;12.90;4.40;;;;;;;15.40;51.71;99675.16;5024790;28;20038;-81
2022/04/13 03:39:08;;;;;;;9.18;4.63;;;;;;;15.40;51.73;99675.16;5031612;28;20388;-80
2022/04/13 03:41:35;;;;;;;6.55;4.40;;;;;;;15.40;51.76;99677.00;5029413;28;20065;-80
2022/04/13 03:44:08;;;;;;;9.02;4.80;;;;;;;15.32;52.01;99683.19;5020566;28;20102;-80
2022/04/13 03:46:35;;;;;;;12.68;4.72;;;;;;;15.35;51.61;99680.19;5040709;28;20045;-80
2022/04/13 03:49:02;;;;;;;11.20;4.97;;;;;;;15.34;51.88;99673.16;5048921;28;20610;-81
2022/04/13 03:51:29;;;;;;;7.45;4.38;;;;;;;15.33;51.85;99676.84;5015411;28;20064;-81
2022/04/13 03:53:56;;;;;;;12.50;4.97;;;;;;;15.32;51.82;99679.69;5031294;28;20041;-80
2022/04/13 03:56:23;;;;;;;9.60;4.68;;;;;;;15.30;52.10;99669.16;5030502;28;20515;-81
2022/04/13 03:58:50;;;;;;;8.02;4.78;;;;;;;15.27;52.08;99677.53;5014130;28;20053;-80
2022/04/13 04:01:16;;;;;;;8.05;4.53;;;;;;;15.26;51.82;99681.19;5024419;28;20141;-81
2022/04/13 04:03:43;;;;;;;10.70;5.82;;;;;;;15.24;51.81;99682.38;5028977;28;20488;-81
2022/04/13 04:06:10;;;;;;;7.93;4.35;;;;;;;15.20;51.95;99677.34;5049389;28;20530;-79
2022/04/13 04:08:37;;;;;;;8.40;5.30;;;;;;;15.20;51.94;99682.72;5032861;28;20436;-80
2022/04/13 04:11:04;;;;;;;7.43;4.53;;;;;;;15.17;51.98;99688.41;5041525;28;20100;-79
2022/04/13 04:13:31;;;;;;;8.55;5.03;;;;;;;15.16;52.20;99685.88;5028881;28;20049;-79
2022/04/13 04:16:00;;;;;;;9.98;4.65;;;;;;;15.15;52.01;99690.41;4999025;28;20096;-80
2022/04/13 04:18:27;;;;;;;7.75;4.30;;;;;;;15.13;52.22;99691.56;5027064;28;20045;-79
2022/04/13 04:21:15;;;;;;;9.20;5.22;;;;;;;15.11;52.29;99696.25;5003854;28;20053;-79
2022/04/13 04:23:42;;;;;;;9.38;4.90;;;;;;;15.08;52.21;99692.06;5027538;28;20045;-80
2022/04/13 04:26:09;;;;;;;10.43;4.55;;;;;;;15.06;52.21;99695.91;5034187;28;20579;-80
2022/04/13 04:28:36;;;;;;;8.88;4.55;;;;;;;15.05;52.26;99700.44;5025442;28;20046;-80
2022/04/13 04:31:03;;;;;;;10.23;4.90;;;;;;;15.03;52.15;99690.91;5016192;28;20098;-80
2022/04/13 04:33:30;;;;;;;7.82;5.00;;;;;;;15.01;52.25;99692.91;5025693;28;20743;-81
2022/04/13 04:35:56;;;;;;;11.55;4.80;;;;;;;14.96;52.17;99693.44;5027452;28;20056;-81
2022/04/13 04:38:23;;;;;;;9.70;4.65;;;;;;;14.93;52.39;99699.09;5023228;28;20535;-81
2022/04/13 04:40:50;;;;;;;11.32;5.07;;;;;;;14.90;52.50;99692.25;5037838;28;20053;-81
2022/04/13 04:43:17;;;;;;;10.15;4.72;;;;;;;14.89;52.59;99692.44;4994626;28;20045;-81
2022/04/13 04:45:44;;;;;;;7.45;5.03;;;;;;;14.89;52.27;99700.47;5009759;28;20042;-81
2022/04/13 04:48:10;;;;;;;8.15;4.60;;;;;;;14.86;52.37;99701.63;5032547;28;20053;-81
2022/04/13 04:50:37;;;;;;;9.75;4.55;;;;;;;14.84;52.35;99695.59;5024585;28;20473;-80
2022/04/13 04:53:04;;;;;;;10.18;4.68;;;;;;;14.83;52.48;99693.91;5028971;28;20053;-81
2022/04/13 04:55:31;;;;;;;10.82;4.55;;;;;;;14.82;52.54;99689.59;5033933;28;20057;-81
2022/04/13 04:57:58;;;;;;;9.55;4.53;;;;;;;14.83;52.58;99693.09;5061956;28;20881;-81
2022/04/13 05:00:25;;;;;;;6.97;4.00;;;;;;;14.81;52.57;99693.28;5005030;28;20045;-81
2022/04/13 05:02:53;;;;;;;8.07;4.53;;;;;;;14.79;52.88;99711.31;5026811;28;20043;-81
2022/04/13 05:05:20;;;;;;;9.38;4.88;;;;;;;14.79;52.75;99695.28;5015632;28;20425;-81
2022/04/13 05:07:47;;;;;;;8.70;5.32;;;;;;;14.78;52.76;99706.94;5014925;28;20072;-81
2022/04/13 05:10:14;;;;;;;9.05;4.88;;;;;;;14.76;52.93;99703.63;5007361;28;20044;-80
2022/04/13 05:12:43;;;;;;;9.10;5.07;;;;;;;14.76;52.90;99703.63;5008646;28;20033;-80
2022/04/13 05:15:11;;;;;;;9.00;5.13;;;;;;;14.76;53.05;99712.47;5013694;28;20043;-80
2022/04/13 05:17:38;;;;;;;7.43;4.65;;;;;;;14.74;53.15;99714.47;5002191;28;20118;-81
2022/04/13 05:20:05;;;;;;;7.28;4.90;;;;;;;14.73;52.95;99707.47;5025694;28;20124;-81
2022/04/13 05:22:32;;;;;;;10.82;5.18;;;;;;;14.73;53.17;99711.94;5030037;28;20029;-81
2022/04/13 05:25:18;;;;;;;12.05;5.55;;;;;;;14.57;53.24;99715.44;5044238;28;21171;-81
2022/04/13 05:27:44;;;;;;;11.93;5.78;;;;;;;14.72;53.02;99720.97;5038928;28;20052;-81
2022/04/13 05:30:14;;;;;;;7.25;4.95;;;;;;;14.72;53.15;99713.78;5045768;28;20102;-80
2022/04/13 05:32:58;;;;;;;9.02;5.18;;;;;;;14.61;53.14;99724.00;5043265;28;20049;-81
2022/04/13 05:35:26;;;;;;;8.23;5.47;;;;;;;14.70;53.05;99722.97;4996799;28;20069;-80
2022/04/13 05:37:53;;;;;;;13.68;5.80;;;;;;;14.69;53.08;99729.34;5025148;28;20053;-81
2022/04/13 05:40:22;;;;;;;10.40;5.65;;;;;;;14.66;53.02;99730.50;5033236;28;20056;-81
2022/04/13 05:42:50;;;;;;;9.27;5.95;;;;;;;14.66;52.91;99735.03;5034290;28;20584;-81
2022/04/13 05:45:17;;;;;;;12.80;5.63;;;;;;;14.63;53.17;99743.34;5035972;28;20048;-81
2022/04/13 05:47:44;;;;;;;10.65;5.82;;;;;;;14.63;53.81;99736.19;5029784;28;20099;-81
2022/04/13 05:50:11;;;;;;;9.45;4.90;;;;;;;14.63;54.13;99746.00;5029835;28;20053;-81
2022/04/13 05:52:39;;;;;;;9.38;5.07;;;;;;;14.62;54.18;99750.53;5040058;28;20052;-81
2022/04/13 05:55:07;;;;;;;10.52;4.90;;;;;;;14.62;53.95;99747.84;5030770;28;20038;-81
2022/04/13 05:57:35;;;;;;;14.95;5.97;;;;;;;14.61;53.63;99740.03;5026174;28;20065;-81
2022/04/13 06:00:05;;;;;;;11.88;6.10;;;;;;;14.58;53.20;99743.00;5026185;28;20412;-81
2022/04/13 06:02:33;;;;;;;14.05;7.25;;;;;;;14.60;52.73;99744.50;5030797;28;20116;-81
2022/04/13 06:05:00;;;;;;;18.15;7.00;;;;;;;14.63;52.97;99749.53;5029175;28;20055;-80
2022/04/13 06:07:27;;;;;;;11.10;6.57;;;;;;;14.62;52.67;99747.03;5013103;28;20056;-80
2022/04/13 06:09:53;;;;;;;12.68;6.78;;;;;;;14.61;52.82;99750.72;5001611;28;20443;-81
2022/04/13 06:12:24;;;;;;;14.10;6.70;;;;;;;14.58;52.69;99749.19;5030078;28;20161;-80
2022/04/13 06:14:51;;;;;;;15.52;6.28;;;;;;;14.62;52.85;99765.72;5029357;28;20052;-81
2022/04/13 06:17:18;;;;;;;11.75;6.38;;;;;;;14.62;53.14;99763.88;5044659;28;20204;-81
2022/04/13 06:19:44;;;;;;;18.65;6.63;;;;;;;14.63;52.96;99759.38;5026182;28;20098;-81
2022/04/13 06:22:11;;;;;;;16.85;6.03;;;;;;;14.64;52.77;99766.41;5041504;28;20397;-80
2022/04/13 06:24:38;;;;;;;23.95;6.57;;;;;;;14.66;52.77;99764.41;5020873;28;20055;-80
2022/04/13 06:27:04;;;;;;;18.95;6.70;;;;;;;14.66;53.14;99770.59;5022300;28;20139;-81
2022/04/13 06:29:31;;;;;;;18.42;6.20;;;;;;;14.68;52.98;99773.09;5025311;28;20068;-80
2022/04/13 06:31:58;;;;;;;14.68;6.63;;;;;;;14.69;52.87;99780.94;5042644;28;20057;-84
2022/04/13 06:34:25;;;;;;;17.13;6.95;;;;;;;14.71;53.01;99773.59;5029698;28;20053;-82
2022/04/13 06:36:52;;;;;;;14.55;6.72;;;;;;;14.72;53.53;99780.63;5015070;28;20396;-84
2022/04/13 06:39:19;;;;;;;15.68;6.47;;;;;;;14.74;53.48;99775.13;5032890;28;20128;-83
2022/04/13 06:41:46;;;;;;;13.98;6.72;;;;;;;14.75;53.34;99780.28;5025111;28;20060;-83
2022/04/13 06:44:12;;;;;;;10.15;6.20;;;;;;;14.77;53.24;99786.31;5006880;28;20136;-83
2022/04/13 06:46:39;;;;;;;16.20;7.35;;;;;;;14.81;53.33;99791.31;5016906;28;20521;-83
2022/04/13 06:49:06;;;;;;;16.63;6.88;;;;;;;14.83;53.37;99783.97;5009090;28;20505;-83
2022/04/13 06:51:33;;;;;;;15.30;6.88;;;;;;;14.85;53.64;99788.16;5024831;28;20124;-83
2022/04/13 06:54:00;;;;;;;13.10;6.43;;;;;;;14.86;53.47;99792.53;5023363;28;20069;-83
2022/04/13 06:56:27;;;;;;;14.55;7.35;;;;;;;14.88;53.29;99790.53;5033835;28;20054;-83
2022/04/13 06:58:54;;;;;;;15.95;6.90;;;;;;;14.88;53.75;99795.00;5022493;28;20393;-83
2022/04/13 07:01:20;;;;;;;15.50;7.07;;;;;;;14.88;53.73;99795.88;5021970;28;20107;-83
2022/04/13 07:03:47;;;;;;;16.20;7.03;;;;;;;14.91;53.85;99800.88;5023291;28;20041;-84
2022/04/13 07:06:15;;;;;;;17.05;7.35;;;;;;;14.93;53.58;99803.38;5030100;28;20045;-84
2022/04/13 07:09:02;;;;;;;13.02;6.90;;;;;;;14.94;53.84;99805.06;4998848;28;20512;-83
2022/04/13 07:11:28;;;;;;;14.02;6.80;;;;;;;14.96;53.97;99797.72;5060015;28;20048;-84
2022/04/13 07:13:56;;;;;;;18.13;7.15;;;;;;;14.96;53.84;99803.91;5028776;28;20497;-83
2022/04/13 07:16:22;;;;;;;12.27;6.93;;;;;;;14.98;54.13;99801.03;5032617;28;20125;-83
2022/04/13 07:18:49;;;;;;;15.75;6.53;;;;;;;14.97;54.38;99802.06;5028586;28;20042;-83
2022/04/13 07:21:16;;;;;;;11.07;6.28;;;;;;;15.03;53.68;99808.56;5037788;28;20560;-83
2022/04/13 07:23:44;;;;;;;12.20;6.85;;;;;;;14.99;53.11;99808.09;5019942;28;20378;-83
2022/04/13 07:26:11;;;;;;;11.50;6.95;;;;;;;15.01;52.78;99808.75;5014429;28;20497;-83
2022/04/13 07:28:38;;;;;;;14.82;6.70;;;;;;;14.95;52.55;99807.56;5010333;28;20238;-83
2022/04/13 07:31:05;;;;;;;13.27;6.53;;;;;;;14.96;52.12;99811.91;5017909;28;20444;-83
2022/04/13 07:33:32;;;;;;;16.70;6.30;;;;;;;14.96;52.32;99819.13;5030220;28;20124;-83
2022/04/13 07:35:58;;;;;;;15.30;6.55;;;;;;;14.97;52.38;99818.09;5000661;28;20053;-83
2022/04/13 07:38:25;;;;;;;16.48;7.35;;;;;;;14.97;52.27;99815.44;5031866;28;20071;-83
2022/04/13 07:40:52;;;;;;;15.30;5.63;;;;;;;15.04;52.25;99816.44;5033915;28;20070;-83
2022/04/13 07:43:19;;;;;;;16.50;6.63;;;;;;;15.07;51.79;99813.44;5027430;28;20128;-83
2022/04/13 07:45:47;;;;;;;15.75;7.78;;;;;;;15.10;51.90;99826.47;5013698;28;20049;-83
2022/04/13 07:48:15;;;;;;;15.50;6.90;;;;;;;15.14;51.94;99824.31;5009806;28;20110;-83
2022/04/13 07:50:42;;;;;;;15.52;7.03;;;;;;;15.15;51.87;99826.81;5025652;28;20045;-83
2022/04/13 07:53:09;;;;;;;14.57;7.15;;;;;;;15.19;52.12;99830.00;5028660;28;20152;-83
2022/04/13 07:55:36;;;;;;;18.02;6.43;;;;;;;15.22;51.79;99827.00;5030603;28;20411;-83
2022/04/13 07:58:03;;;;;;;13.05;6.75;;;;;;;15.24;51.79;99816.97;5057638;28;20052;-83
2022/04/13 08:00:30;;;;;;;15.25;7.25;;;;;;;15.24;51.81;99829.47;5039563;28;20091;-83
2022/04/13 08:02:57;;;;;;;16.83;7.63;;;;;;;15.27;52.10;99834.53;5022619;28;20045;-83
2022/04/13 08:05:24;;;;;;;16.50;6.97;;;;;;;15.30;52.56;99832.34;5001374;28;20057;-83
2022/04/13 08:07:51;;;;;;;14.35;6.85;;;;;;;15.31;52.41;99839.34;5024237;28;20048;-83
2022/04/13 08:10:18;;;;;;;15.18;6.78;;;;;;;15.39;52.41;99835.84;5024256;28;20516;-83
2022/04/13 08:12:46;;;;;;;14.40;6.28;;;;;;;15.37;51.65;99836.03;5031198;28;20429;-83
2022/04/13 08:15:14;;;;;;;14.88;6.22;;;;;;;15.37;51.66;99840.56;5042206;28;20103;-84
2022/04/13 08:17:40;;;;;;;11.82;5.75;;;;;;;15.39;52.06;99833.16;5028872;28;20400;-83
2022/04/13 08:20:09;;;;;;;12.63;6.35;;;;;;;15.44;51.76;99840.69;5013278;28;20040;-83
2022/04/13 08:22:37;;;;;;;12.30;6.18;;;;;;;15.45;51.77;99842.41;5011082;28;20060;-83
2022/04/13 08:25:04;;;;;;;14.85;6.25;;;;;;;15.46;51.26;99844.06;5037644;28;20489;-83
2022/04/13 08:27:31;;;;;;;11.60;5.65;;;;;;;15.47;51.47;99845.72;5006461;28;20037;-83
2022/04/13 08:29:58;;;;;;;12.75;6.43;;;;;;;15.48;51.64;99840.22;5026589;28;20098;-83
2022/04/13 08:32:24;;;;;;;11.80;6.05;;;;;;;15.53;51.49;99837.03;4990114;28;20514;-83
2022/04/13 08:34:52;;;;;;;12.65;6.43;;;;;;;15.57;51.78;99841.03;5018311;28;20691;-83
2022/04/13 08:37:20;;;;;;;10.10;5.85;;;;;;;15.61;51.66;99843.22;5006901;28;20038;-83
2022/04/13 08:39:46;;;;;;;11.55;5.43;;;;;;;15.60;51.75;99840.72;5051573;28;20425;-83
2022/04/13 08:42:38;;;;;;;11.35;5.90;;;;;;;15.60;51.07;99843.41;5027240;28;20129;-83
2022/04/13 08:45:14;;;;;;;19.67;6.75;;;;;;;15.66;51.77;99840.03;5003224;28;20056;-84
2022/04/13 08:47:42;;;;;;;13.23;5.82;;;;;;;15.69;51.34;99845.06;5056793;28;20045;-84
2022/04/13 08:50:11;;;;;;;11.38;6.22;;;;;;;15.70;51.38;99848.59;5027503;28;20049;-83
2022/04/13 08:52:39;;;;;;;14.45;6.20;;;;;;;15.71;51.74;99847.59;5035124;28;20125;-84
2022/04/13 08:55:11;;;;;;;12.82;5.68;;;;;;;15.70;51.41;99844.09;5016647;28;20045;-83
2022/04/13 08:58:06;;;;;;;14.70;6.23;;;;;;;15.62;51.65;99844.91;5031930;28;20053;-83
2022/04/13 09:00:34;;;;;;;14.32;6.05;;;;;;;15.79;51.68;99843.06;5046793;28;20042;-84
2022/04/13 09:03:26;;;;;;;12.18;5.82;;;;;;;15.71;51.98;99837.72;5018971;28;20119;-84
2022/04/13 09:05:55;;;;;;;10.85;6.05;;;;;;;15.82;51.77;99842.75;4977796;28;20075;-84
2022/04/13 09:08:23;;;;;;;10.35;5.45;;;;;;;15.84;51.62;99837.19;5023358;28;20140;-83
2022/04/13 09:10:52;;;;;;;13.30;6.20;;;;;;;15.86;51.54;99837.03;5035364;28;20258;-83
2022/04/13 09:13:35;;;;;;;14.48;5.60;;;;;;;15.88;51.44;99837.72;5016531;28;20049;-83
2022/04/13 09:16:04;;;;;;;11.93;5.25;;;;;;;15.92;51.26;99841.72;5038034;28;20591;-84
2022/04/13 09:18:31;;;;;;;13.70;5.93;;;;;;;15.94;51.67;99839.69;5035107;28;20130;-84
2022/04/13 09:20:59;;;;;;;12.55;6.20;;;;;;;15.96;51.51;99846.56;5013227;28;20057;-83
2022/04/13 09:23:28;;;;;;;11.23;6.50;;;;;;;15.98;51.58;99847.22;5020313;28;20047;-84
2022/04/13 09:25:56;;;;;;;13.88;5.82;;;;;;;15.99;51.73;99845.38;5034496;28;20044;-83
2022/04/13 09:28:23;;;;;;;10.93;5.45;;;;;;;16.01;51.34;99846.06;5034015;28;20477;-83
2022/04/13 09:30:52;;;;;;;13.32;5.75;;;;;;;16.05;51.91;99836.66;5030588;28;20454;-83
2022/04/13 09:33:20;;;;;;;13.35;5.75;;;;;;;16.08;51.57;99847.06;5001286;28;20049;-84
2022/04/13 09:35:46;;;;;;;15.20;6.43;;;;;;;16.12;51.73;99848.34;5019561;28;20064;-84
2022/04/13 09:38:13;;;;;;;17.00;5.93;;;;;;;16.12;51.68;99837.66;5030172;28;20060;-84
2022/04/13 09:40:42;;;;;;;9.55;5.72;;;;;;;16.16;51.52;99833.63;5034705;28;20110;-83
2022/04/13 09:43:17;;;;;;;13.38;6.28;;;;;;;16.18;51.59;99834.28;5046638;28;20041;-84
2022/04/13 09:45:46;;;;;;;11.00;5.10;;;;;;;16.16;51.53;99835.47;5027318;28;20065;-84
2022/04/13 09:48:17;;;;;;;13.18;5.32;;;;;;;16.16;51.70;99833.63;5023984;28;20049;-83
2022/04/13 09:50:44;;;;;;;14.95;5.82;;;;;;;16.21;51.29;99831.25;5017566;28;20037;-84
2022/04/13 09:53:14;;;;;;;23.38;7.40;;;;;;;16.22;52.05;99830.25;5032117;28;20060;-84
2022/04/13 09:55:53;;;;;;;13.15;5.95;;;;;;;16.25;52.05;99837.94;5022264;28;20496;-84
2022/04/13 09:58:23;;;;;;;9.57;4.38;;;;;;;16.25;51.81;99834.41;5042972;28;20045;-84
2022/04/13 10:00:52;;;;;;;12.45;5.85;;;;;;;16.30;51.56;99828.56;5029012;28;20489;-84
2022/04/13 10:03:22;;;;;;;12.77;5.13;;;;;;;16.33;51.18;99830.88;5028431;28;20676;-83
2022/04/13 10:05:51;;;;;;;10.45;5.45;;;;;;;16.37;50.81;99822.31;5029302;28;20042;-84
2022/04/13 10:08:22;;;;;;;14.48;4.95;;;;;;;16.41;50.85;99820.97;5041990;28;20041;-84
2022/04/13 10:10:54;;;;;;;13.18;4.85;;;;;;;16.46;51.28;99820.44;5028422;28;20064;-84
2022/04/13 10:13:31;;;;;;;11.55;5.38;;;;;;;16.49;50.85;99817.44;5028169;28;20068;-84
2022/04/13 10:16:06;;;;;;;15.88;6.15;;;;;;;16.55;51.51;99818.56;5011537;28;20045;-83
2022/04/13 10:18:53;;;;;;;;;;;;;;;16.36;51.96;99814.44;5041972;28;20045;-84
2022/04/13 10:21:45;;;;;;;11.57;6.60;;;;;;;16.52;51.44;99808.22;5031379;28;19921;-84
2022/04/13 10:24:21;;;;;;;11.60;5.15;;;;;;;16.55;51.15;99807.84;5007038;28;20132;-84
2022/04/13 10:27:06;;;;;;;14.63;6.05;;;;;;;16.58;50.96;99794.09;5034786;28;20493;-83
2022/04/13 10:29:35;;;;;;;13.85;4.65;;;;;;;16.69;50.93;99799.06;5002416;28;20045;-84
2022/04/13 10:32:07;;;;;;;9.98;5.15;;;;;;;16.64;50.61;99798.78;5028110;28;20053;-83
2022/04/13 10:34:54;;;;;;;12.23;5.57;;;;;;;16.57;50.27;99798.63;5029375;28;20519;-84
2022/04/13 10:37:23;;;;;;;12.15;4.88;;;;;;;16.74;50.49;99803.88;4979447;28;20037;-83
2022/04/13 10:39:52;;;;;;;8.63;4.70;;;;;;;16.76;51.11;99796.50;5045646;28;20051;-83
2022/04/13 10:42:21;;;;;;;13.43;4.80;;;;;;;16.78;50.72;99803.38;5006004;28;20052;-83
2022/04/13 10:45:05;;;;;;;13.25;4.93;;;;;;;16.71;52.18;99799.72;5004790;28;20057;-83
2022/04/13 10:47:50;;;;;;;16.38;4.57;;;;;;;16.75;51.04;99794.84;4991014;28;20064;-83
2022/04/13 10:50:30;;;;;;;10.73;4.60;;;;;;;16.88;50.87;99795.13;5025666;28;20041;-83
2022/04/13 10:52:58;;;;;;;12.15;4.40;;;;;;;16.92;50.88;99786.56;4990023;28;20111;-84
2022/04/13 10:55:27;;;;;;;11.98;4.53;;;;;;;16.96;50.20;99789.69;4998066;28;20056;-83
2022/04/13 10:58:02;;;;;;;9.43;3.70;;;;;;;16.98;47.77;99790.38;5054293;28;20052;-84
2022/04/13 11:00:32;;;;;;;7.65;3.33;;;;;;;17.03;48.26;99785.28;4998814;28;20054;-83
2022/04/13 11:03:03;;;;;;;10.55;3.10;;;;;;;17.05;47.98;99785.13;5041139;28;20057;-83
2022/04/13 11:05:32;;;;;;;10.75;3.58;;;;;;;17.13;47.60;99780.53;5010516;28;20108;-84
2022/04/13 11:08:14;;;;;;;10.07;3.00;;;;;;;17.01;46.59;99790.00;5026218;28;20057;-83
2022/04/13 11:10:42;;;;;;;13.38;3.78;;;;;;;17.17;47.29;99783.66;5030535;28;20526;-83
2022/04/13 11:13:10;;;;;;;8.00;3.60;;;;;;;17.29;46.83;99786.78;5026258;28;20041;-83
2022/04/13 11:15:45;;;;;;;11.30;3.45;;;;;;;17.19;46.25;99780.81;5017497;28;20956;-83
2022/04/13 11:18:17;;;;;;;7.97;2.80;;;;;;;17.27;47.32;99778.06;5015567;28;20489;-83
2022/04/13 11:20:59;;;;;;;10.00;3.05;;;;;;;17.18;46.08;99766.56;4987316;28;20060;-83
2022/04/13 11:23:51;;;;;;;12.82;3.20;;;;;;;17.22;46.16;99770.53;4979706;28;20041;-83
2022/04/13 11:26:35;;;;;;;5.95;3.03;;;;;;;17.36;44.69;99769.75;5026375;28;20067;-83
2022/04/13 11:29:12;;;;;;;11.07;2.83;;;;;;;17.41;46.23;99768.41;5030890;28;20053;-83
2022/04/13 11:32:01;;;;;;;6.57;3.05;;;;;;;17.47;46.58;99765.81;4985484;28;20601;-83
2022/04/13 11:34:28;;;;;;;11.13;3.00;;;;;;;17.55;46.44;99756.84;5027648;28;20044;-83
2022/04/13 11:36:59;;;;;;;11.35;2.92;;;;;;;17.54;46.37;99758.69;5008912;28;20459;-83
2022/04/13 11:39:47;;;;;;;8.35;2.40;;;;;;;17.49;45.55;99761.09;4980484;28;20041;-84
2022/04/13 11:42:26;;;;;;;9.55;2.72;;;;;;;17.53;45.43;99756.22;4995688;28;20045;-83
2022/04/13 11:45:11;;;;;;;9.73;2.83;;;;;;;17.52;45.14;99751.84;5042317;28;20056;-83
2022/04/13 11:47:59;;;;;;;10.70;2.60;;;;;;;17.56;45.93;99745.09;5006252;28;20042;-83